FPO26U LTFM-LFPG
Flight info
| Callsign | FPO26U |
|---|---|
| Flight time | N/A |
| Altitude | 38000 |
| Route | TUDBU1D/35L TUDBU Q26 ETUBA DCT ELDET DCT BACAM DCT SODGO DCT DIDIX DCT INVED DCT STEIN DCT RENKA L610 STAUB/N0365F240 L610 MAMOR DCT ASPAT DCT VIBOM DCT BETEX DCT IDOSA DCT TOLVU/N0434F390 DCT RAPOR DCT VEDUS |
| Aircraft | B738/M-SDE2E3FGHIRWXY/LB1 |
Departure
| Time | N/A |
|---|---|
| Airport | İstanbul Airport (LTFM) |
Arrival
| Time | 2026-04-30 12:01 |
|---|---|
| Airport | Charles de Gaulle International Airport (LFPG) |
| Time | Latitude | Longitude | Altitude | Speed | Heading |
|---|---|---|---|---|---|
| 2026-04-30 09:53 | 45.57215 | 21.60024 | 38262 ft | 412 kts | 307° |
| 2026-04-30 09:53 | 45.58965 | 21.56856 | 38265 ft | 412 kts | 307° |
| 2026-04-30 09:54 | 45.62511 | 21.50427 | 38268 ft | 412 kts | 307° |
| 2026-04-30 09:54 | 45.66046 | 21.44002 | 38274 ft | 412 kts | 307° |
| 2026-04-30 09:55 | 45.69581 | 21.37561 | 38274 ft | 412 kts | 307° |
| 2026-04-30 09:55 | 45.73116 | 21.31108 | 38297 ft | 412 kts | 307° |
| 2026-04-30 09:56 | 45.76647 | 21.24645 | 38286 ft | 412 kts | 308° |
| 2026-04-30 09:56 | 45.80177 | 21.18169 | 38295 ft | 413 kts | 308° |
| 2026-04-30 09:57 | 45.83687 | 21.11716 | 38294 ft | 414 kts | 308° |
| 2026-04-30 09:57 | 45.87223 | 21.05200 | 38295 ft | 414 kts | 308° |
| 2026-04-30 09:58 | 45.90605 | 20.98498 | 38299 ft | 415 kts | 303° |
| 2026-04-30 09:58 | 45.93649 | 20.91454 | 38300 ft | 415 kts | 302° |
| 2026-04-30 09:59 | 45.99701 | 20.77377 | 38312 ft | 415 kts | 302° |
| 2026-04-30 10:00 | 46.04288 | 20.66805 | 38312 ft | 415 kts | 302° |
| 2026-04-30 10:01 | 46.08850 | 20.56255 | 38314 ft | 413 kts | 303° |
| 2026-04-30 10:02 | 46.13390 | 20.45716 | 38323 ft | 412 kts | 303° |
| 2026-04-30 10:02 | 46.16344 | 20.38715 | 38322 ft | 411 kts | 300° |
| 2026-04-30 10:03 | 46.19003 | 20.31411 | 38316 ft | 411 kts | 298° |
| 2026-04-30 10:03 | 46.21584 | 20.24057 | 38331 ft | 411 kts | 298° |
| 2026-04-30 10:04 | 46.24176 | 20.16698 | 38329 ft | 411 kts | 298° |
| 2026-04-30 10:04 | 46.26766 | 20.09381 | 38332 ft | 412 kts | 298° |
| 2026-04-30 10:05 | 46.29380 | 20.01998 | 38340 ft | 413 kts | 298° |
| 2026-04-30 10:05 | 46.31999 | 19.94587 | 38338 ft | 414 kts | 298° |
| 2026-04-30 10:06 | 46.34617 | 19.87155 | 38342 ft | 415 kts | 298° |
| 2026-04-30 10:06 | 46.37217 | 19.79757 | 38341 ft | 416 kts | 298° |
| 2026-04-30 10:07 | 46.39834 | 19.72288 | 38347 ft | 416 kts | 298° |
| 2026-04-30 10:07 | 46.42449 | 19.64804 | 38339 ft | 416 kts | 298° |
| 2026-04-30 10:08 | 46.45057 | 19.57318 | 38349 ft | 416 kts | 298° |
| 2026-04-30 10:08 | 46.47639 | 19.49885 | 38354 ft | 415 kts | 298° |
| 2026-04-30 10:09 | 46.50228 | 19.42411 | 38358 ft | 414 kts | 298° |
| 2026-04-30 10:09 | 46.52805 | 19.34951 | 38358 ft | 413 kts | 298° |
| 2026-04-30 10:10 | 46.55373 | 19.27498 | 38358 ft | 412 kts | 298° |
| 2026-04-30 10:10 | 46.57926 | 19.20066 | 38365 ft | 410 kts | 298° |
| 2026-04-30 10:11 | 46.59574 | 19.15257 | 38367 ft | 410 kts | 298° |
| 2026-04-30 10:11 | 46.62108 | 19.07847 | 38376 ft | 409 kts | 298° |
| 2026-04-30 10:12 | 46.64636 | 19.00430 | 38372 ft | 409 kts | 298° |
| 2026-04-30 10:12 | 46.67158 | 18.93012 | 38359 ft | 409 kts | 298° |
| 2026-04-30 10:13 | 46.69665 | 18.85618 | 38373 ft | 410 kts | 297° |
| 2026-04-30 10:13 | 46.72191 | 18.78147 | 38384 ft | 412 kts | 297° |
| 2026-04-30 10:14 | 46.74723 | 18.70637 | 38385 ft | 414 kts | 297° |
| 2026-04-30 10:14 | 46.78535 | 18.59285 | 38364 ft | 417 kts | 297° |
| 2026-04-30 10:15 | 46.81064 | 18.51731 | 38386 ft | 418 kts | 297° |
| 2026-04-30 10:15 | 46.83614 | 18.44087 | 38389 ft | 419 kts | 297° |
| 2026-04-30 10:16 | 46.86169 | 18.36409 | 38392 ft | 421 kts | 297° |
| 2026-04-30 10:17 | 46.89980 | 18.24909 | 38370 ft | 421 kts | 297° |
| 2026-04-30 10:17 | 46.93795 | 18.13349 | 38400 ft | 421 kts | 297° |
| 2026-04-30 10:18 | 46.96335 | 18.05623 | 38390 ft | 421 kts | 297° |
| 2026-04-30 10:19 | 47.00128 | 17.94041 | 38401 ft | 421 kts | 297° |
| 2026-04-30 10:19 | 47.02635 | 17.86359 | 38393 ft | 420 kts | 297° |
| 2026-04-30 10:20 | 47.05153 | 17.78618 | 38404 ft | 421 kts | 297° |
| 2026-04-30 10:20 | 47.08930 | 17.66965 | 38412 ft | 422 kts | 297° |
| 2026-04-30 10:21 | 47.11433 | 17.59213 | 38413 ft | 424 kts | 297° |
| 2026-04-30 10:21 | 47.13956 | 17.51375 | 38406 ft | 424 kts | 298° |
| 2026-04-30 10:22 | 47.16475 | 17.43526 | 38421 ft | 425 kts | 298° |
| 2026-04-30 10:22 | 47.18994 | 17.35653 | 38422 ft | 426 kts | 298° |
| 2026-04-30 10:23 | 47.21514 | 17.27752 | 38425 ft | 427 kts | 298° |
| 2026-04-30 10:23 | 47.24016 | 17.19882 | 38421 ft | 428 kts | 298° |
| 2026-04-30 10:24 | 47.26528 | 17.11956 | 38422 ft | 427 kts | 298° |
| 2026-04-30 10:24 | 47.29030 | 17.04037 | 38423 ft | 427 kts | 298° |
| 2026-04-30 10:25 | 47.31528 | 16.96106 | 38424 ft | 426 kts | 298° |
| 2026-04-30 10:25 | 47.34014 | 16.88187 | 38426 ft | 426 kts | 298° |
| 2026-04-30 10:26 | 47.36476 | 16.80320 | 38404 ft | 425 kts | 298° |
| 2026-04-30 10:26 | 47.38944 | 16.72411 | 38418 ft | 424 kts | 298° |
| 2026-04-30 10:27 | 47.41399 | 16.64521 | 38431 ft | 423 kts | 298° |
| 2026-04-30 10:27 | 47.43964 | 16.56730 | 38421 ft | 420 kts | 302° |
| 2026-04-30 10:28 | 47.46905 | 16.49291 | 38431 ft | 419 kts | 304° |
| 2026-04-30 10:28 | 47.49876 | 16.41946 | 38427 ft | 419 kts | 304° |
| 2026-04-30 10:29 | 47.52838 | 16.34509 | 38430 ft | 420 kts | 304° |
| 2026-04-30 10:29 | 47.55775 | 16.27039 | 38437 ft | 420 kts | 304° |
| 2026-04-30 10:30 | 47.58680 | 16.19603 | 38433 ft | 421 kts | 304° |
| 2026-04-30 10:30 | 47.61615 | 16.12067 | 38436 ft | 422 kts | 303° |
| 2026-04-30 10:31 | 47.64536 | 16.04543 | 38428 ft | 421 kts | 303° |
| 2026-04-30 10:31 | 47.67459 | 15.96996 | 38435 ft | 422 kts | 303° |
| 2026-04-30 10:32 | 47.70376 | 15.89443 | 38425 ft | 422 kts | 303° |
| 2026-04-30 10:32 | 47.73268 | 15.81936 | 38431 ft | 422 kts | 303° |
| 2026-04-30 10:33 | 47.76171 | 15.74375 | 38413 ft | 421 kts | 304° |
| 2026-04-30 10:33 | 47.79065 | 15.66817 | 38438 ft | 420 kts | 304° |
| 2026-04-30 10:34 | 47.81947 | 15.59270 | 38435 ft | 419 kts | 304° |
| 2026-04-30 10:34 | 47.84823 | 15.51717 | 38434 ft | 419 kts | 303° |
| 2026-04-30 10:35 | 47.87672 | 15.44216 | 38446 ft | 418 kts | 303° |
| 2026-04-30 10:35 | 47.90529 | 15.36669 | 38436 ft | 418 kts | 304° |
| 2026-04-30 10:36 | 47.93381 | 15.29119 | 38445 ft | 418 kts | 304° |
| 2026-04-30 10:36 | 47.96226 | 15.21563 | 38439 ft | 418 kts | 303° |
| 2026-04-30 10:37 | 47.99069 | 15.13992 | 38452 ft | 418 kts | 303° |
| 2026-04-30 10:37 | 48.01888 | 15.06463 | 38443 ft | 419 kts | 303° |
| 2026-04-30 10:38 | 48.04726 | 14.98860 | 38446 ft | 419 kts | 304° |
| 2026-04-30 10:38 | 48.07561 | 14.91245 | 38439 ft | 419 kts | 304° |
| 2026-04-30 10:39 | 48.10390 | 14.83622 | 38446 ft | 419 kts | 304° |
| 2026-04-30 10:39 | 48.13196 | 14.76039 | 38452 ft | 420 kts | 303° |
| 2026-04-30 10:40 | 48.16020 | 14.68388 | 38448 ft | 420 kts | 303° |
| 2026-04-30 10:40 | 48.18842 | 14.60718 | 38446 ft | 420 kts | 304° |
| 2026-04-30 10:41 | 48.21656 | 14.53050 | 38456 ft | 420 kts | 303° |
| 2026-04-30 10:41 | 48.24450 | 14.45413 | 38450 ft | 421 kts | 303° |
| 2026-04-30 10:42 | 48.27260 | 14.37708 | 38457 ft | 421 kts | 303° |
| 2026-04-30 10:42 | 48.30066 | 14.29994 | 38455 ft | 421 kts | 303° |
| 2026-04-30 10:43 | 48.32870 | 14.22260 | 38443 ft | 421 kts | 303° |
| 2026-04-30 10:43 | 48.35647 | 14.14581 | 38458 ft | 421 kts | 304° |
| 2026-04-30 10:44 | 48.38439 | 14.06838 | 38458 ft | 421 kts | 303° |
| 2026-04-30 10:44 | 48.41227 | 13.99081 | 38437 ft | 421 kts | 303° |
| 2026-04-30 10:45 | 48.44007 | 13.91324 | 38413 ft | 421 kts | 303° |
| 2026-04-30 10:45 | 48.46784 | 13.83551 | 38432 ft | 421 kts | 303° |
| 2026-04-30 10:46 | 48.49537 | 13.75824 | 38437 ft | 421 kts | 304° |
| 2026-04-30 10:46 | 48.52301 | 13.68041 | 38438 ft | 422 kts | 304° |
| 2026-04-30 10:47 | 48.55071 | 13.60222 | 38433 ft | 423 kts | 303° |
| 2026-04-30 10:47 | 48.57844 | 13.52368 | 38409 ft | 424 kts | 303° |
| 2026-04-30 10:48 | 48.60172 | 13.44190 | 38436 ft | 430 kts | 295° |
| 2026-04-30 10:48 | 48.62143 | 13.35656 | 38431 ft | 431 kts | 295° |
| 2026-04-30 10:49 | 48.64139 | 13.27125 | 38426 ft | 430 kts | 295° |
| 2026-04-30 10:49 | 48.66171 | 13.18621 | 38439 ft | 430 kts | 295° |
| 2026-04-30 10:50 | 48.68189 | 13.10175 | 38388 ft | 429 kts | 296° |
| 2026-04-30 10:50 | 48.70203 | 13.01680 | 38421 ft | 429 kts | 296° |
| 2026-04-30 10:51 | 48.72208 | 12.93165 | 38434 ft | 430 kts | 296° |
| 2026-04-30 10:51 | 48.74210 | 12.84631 | 38428 ft | 430 kts | 296° |
| 2026-04-30 10:52 | 48.76197 | 12.76129 | 38430 ft | 431 kts | 296° |
| 2026-04-30 10:52 | 48.78195 | 12.67552 | 38429 ft | 432 kts | 295° |
| 2026-04-30 10:53 | 48.80187 | 12.58950 | 38426 ft | 433 kts | 295° |
| 2026-04-30 10:53 | 48.82173 | 12.50332 | 38430 ft | 433 kts | 295° |
| 2026-04-30 10:54 | 48.84156 | 12.41691 | 38422 ft | 434 kts | 295° |
| 2026-04-30 10:54 | 48.86120 | 12.33098 | 38390 ft | 434 kts | 295° |
| 2026-04-30 10:55 | 48.88091 | 12.24447 | 38424 ft | 433 kts | 295° |
| 2026-04-30 10:55 | 48.90015 | 12.15765 | 38440 ft | 434 kts | 294° |
| 2026-04-30 10:56 | 48.91874 | 12.07013 | 38431 ft | 435 kts | 294° |
| 2026-04-30 10:56 | 48.93714 | 11.98306 | 38435 ft | 435 kts | 294° |
| 2026-04-30 10:57 | 48.95566 | 11.89544 | 38411 ft | 435 kts | 294° |
| 2026-04-30 10:57 | 48.97418 | 11.80769 | 38419 ft | 435 kts | 294° |
| 2026-04-30 10:58 | 48.99263 | 11.71995 | 38425 ft | 435 kts | 294° |
| 2026-04-30 10:58 | 49.01103 | 11.63205 | 38422 ft | 436 kts | 294° |
| 2026-04-30 10:59 | 49.02926 | 11.54456 | 38421 ft | 436 kts | 294° |
| 2026-04-30 10:59 | 49.04756 | 11.45636 | 38407 ft | 436 kts | 293° |
| 2026-04-30 11:00 | 49.06578 | 11.36814 | 38402 ft | 436 kts | 293° |
| 2026-04-30 11:00 | 49.08394 | 11.27985 | 38403 ft | 436 kts | 293° |
| 2026-04-30 11:01 | 49.10205 | 11.19138 | 38398 ft | 437 kts | 293° |
| 2026-04-30 11:01 | 49.11999 | 11.10341 | 38397 ft | 437 kts | 293° |
| 2026-04-30 11:02 | 49.13797 | 11.01475 | 38408 ft | 437 kts | 293° |
| 2026-04-30 11:02 | 49.15589 | 10.92602 | 38417 ft | 437 kts | 292° |
| 2026-04-30 11:03 | 49.17375 | 10.83723 | 38434 ft | 437 kts | 292° |
| 2026-04-30 11:04 | 49.20021 | 10.70442 | 38429 ft | 438 kts | 291° |
| 2026-04-30 11:04 | 49.21647 | 10.61466 | 38433 ft | 438 kts | 290° |
| 2026-04-30 11:05 | 49.23225 | 10.52468 | 38413 ft | 438 kts | 290° |
| 2026-04-30 11:05 | 49.24811 | 10.43454 | 38416 ft | 438 kts | 290° |
| 2026-04-30 11:06 | 49.26399 | 10.34453 | 38404 ft | 438 kts | 290° |
| 2026-04-30 11:06 | 49.27987 | 10.25431 | 38353 ft | 439 kts | 290° |
| 2026-04-30 11:07 | 49.29557 | 10.16464 | 38378 ft | 438 kts | 290° |
| 2026-04-30 11:07 | 49.31130 | 10.07430 | 38384 ft | 439 kts | 290° |
| 2026-04-30 11:08 | 49.32697 | 9.98390 | 38365 ft | 439 kts | 290° |
| 2026-04-30 11:08 | 49.34258 | 9.89329 | 38381 ft | 440 kts | 290° |
| 2026-04-30 11:09 | 49.35814 | 9.80259 | 38363 ft | 440 kts | 289° |
| 2026-04-30 11:09 | 49.37361 | 9.71188 | 38372 ft | 440 kts | 289° |
| 2026-04-30 11:10 | 49.38904 | 9.62096 | 38369 ft | 440 kts | 289° |
| 2026-04-30 11:10 | 49.40439 | 9.52999 | 38377 ft | 440 kts | 289° |
| 2026-04-30 11:11 | 49.41957 | 9.43960 | 38366 ft | 440 kts | 289° |
| 2026-04-30 11:11 | 49.43478 | 9.34855 | 38369 ft | 439 kts | 288° |
| 2026-04-30 11:12 | 49.44993 | 9.25734 | 38356 ft | 440 kts | 288° |
| 2026-04-30 11:12 | 49.46500 | 9.16623 | 38366 ft | 440 kts | 288° |
| 2026-04-30 11:13 | 49.47890 | 9.07444 | 38363 ft | 441 kts | 286° |
| 2026-04-30 11:13 | 49.49141 | 8.98242 | 38358 ft | 442 kts | 285° |
| 2026-04-30 11:14 | 49.50392 | 8.88990 | 38359 ft | 442 kts | 285° |
| 2026-04-30 11:14 | 49.51657 | 8.79723 | 38366 ft | 443 kts | 285° |
| 2026-04-30 11:15 | 49.52926 | 8.70436 | 38379 ft | 443 kts | 285° |
| 2026-04-30 11:15 | 49.54190 | 8.61146 | 38375 ft | 444 kts | 285° |
| 2026-04-30 11:16 | 49.55449 | 8.51832 | 38370 ft | 444 kts | 285° |
| 2026-04-30 11:16 | 49.56701 | 8.42504 | 38357 ft | 444 kts | 285° |
| 2026-04-30 11:17 | 49.57943 | 8.33185 | 38358 ft | 444 kts | 285° |
| 2026-04-30 11:17 | 49.59181 | 8.23842 | 38364 ft | 444 kts | 285° |
| 2026-04-30 11:18 | 49.60402 | 8.14564 | 38371 ft | 445 kts | 285° |
| 2026-04-30 11:18 | 49.62232 | 8.00547 | 38346 ft | 444 kts | 284° |
| 2026-04-30 11:19 | 49.63440 | 7.91209 | 38351 ft | 444 kts | 284° |
| 2026-04-30 11:19 | 49.64640 | 7.81872 | 38342 ft | 443 kts | 284° |
| 2026-04-30 11:20 | 49.65832 | 7.72532 | 38344 ft | 443 kts | 284° |
| 2026-04-30 11:20 | 49.67016 | 7.63205 | 38331 ft | 442 kts | 284° |
| 2026-04-30 11:21 | 49.68182 | 7.53945 | 38332 ft | 441 kts | 284° |
| 2026-04-30 11:21 | 49.69343 | 7.44660 | 38348 ft | 440 kts | 283° |
| 2026-04-30 11:22 | 49.70497 | 7.35373 | 38343 ft | 440 kts | 283° |
| 2026-04-30 11:22 | 49.71644 | 7.26084 | 38340 ft | 439 kts | 283° |
| 2026-04-30 11:23 | 49.72781 | 7.16805 | 38328 ft | 440 kts | 283° |
| 2026-04-30 11:24 | 49.74478 | 7.02835 | 38314 ft | 442 kts | 283° |
| 2026-04-30 11:24 | 49.75599 | 6.93521 | 38314 ft | 444 kts | 283° |
| 2026-04-30 11:25 | 49.77287 | 6.79372 | 38295 ft | 446 kts | 282° |
| 2026-04-30 11:26 | 49.79510 | 6.60498 | 38297 ft | 448 kts | 282° |
| 2026-04-30 11:26 | 49.80618 | 6.50998 | 38297 ft | 449 kts | 282° |
| 2026-04-30 11:27 | 49.81296 | 6.41408 | 38303 ft | 450 kts | 269° |
| 2026-04-30 11:27 | 49.80315 | 6.31826 | 38319 ft | 450 kts | 258° |
| 2026-04-30 11:28 | 49.78327 | 6.17660 | 38309 ft | 448 kts | 258° |
| 2026-04-30 11:29 | 49.77272 | 6.09846 | 38302 ft | 446 kts | 258° |
| 2026-04-30 11:29 | 49.75392 | 5.95803 | 38298 ft | 443 kts | 258° |
| 2026-04-30 11:30 | 49.74116 | 5.86568 | 38265 ft | 428 kts | 255° |
| 2026-04-30 11:30 | 49.73233 | 5.82262 | 38289 ft | 413 kts | 250° |
| 2026-04-30 11:30 | 49.72261 | 5.78158 | 38260 ft | 400 kts | 248° |
| 2026-04-30 11:31 | 49.71294 | 5.74203 | 38291 ft | 388 kts | 248° |
| 2026-04-30 11:31 | 49.69392 | 5.66347 | 38295 ft | 396 kts | 249° |
| 2026-04-30 11:32 | 49.67465 | 5.58222 | 38297 ft | 410 kts | 249° |
| 2026-04-30 11:32 | 49.65498 | 5.49871 | 38278 ft | 416 kts | 249° |
| 2026-04-30 11:33 | 49.62556 | 5.37432 | 38237 ft | 404 kts | 248° |
| 2026-04-30 11:33 | 49.60779 | 5.29264 | 38275 ft | 407 kts | 251° |
| 2026-04-30 11:34 | 49.59239 | 5.20827 | 38254 ft | 412 kts | 261° |
| 2026-04-30 11:34 | 49.59098 | 5.11965 | 38271 ft | 415 kts | 271° |
| 2026-04-30 11:35 | 49.59258 | 5.03101 | 38237 ft | 411 kts | 271° |
| 2026-04-30 11:35 | 49.59367 | 4.94329 | 38236 ft | 410 kts | 271° |
| 2026-04-30 11:36 | 49.59443 | 4.85597 | 38267 ft | 408 kts | 270° |
| 2026-04-30 11:36 | 49.59477 | 4.81263 | 37969 ft | 403 kts | 270° |
| 2026-04-30 11:36 | 49.59509 | 4.76944 | 37467 ft | 403 kts | 270° |
| 2026-04-30 11:37 | 49.59533 | 4.72558 | 36484 ft | 417 kts | 270° |
| 2026-04-30 11:37 | 49.59553 | 4.67987 | 35392 ft | 435 kts | 270° |
| 2026-04-30 11:37 | 49.59571 | 4.63293 | 34712 ft | 440 kts | 270° |
| 2026-04-30 11:37 | 49.59588 | 4.58559 | 34013 ft | 444 kts | 269° |
| 2026-04-30 11:38 | 49.59604 | 4.53778 | 33258 ft | 448 kts | 270° |
| 2026-04-30 11:38 | 49.59618 | 4.48957 | 32523 ft | 451 kts | 270° |
| 2026-04-30 11:38 | 49.59632 | 4.44173 | 31811 ft | 454 kts | 269° |
| 2026-04-30 11:38 | 49.59643 | 4.39302 | 31107 ft | 456 kts | 269° |
| 2026-04-30 11:39 | 49.59652 | 4.34408 | 30429 ft | 458 kts | 269° |
| 2026-04-30 11:39 | 49.59472 | 4.29515 | 29642 ft | 457 kts | 259° |
| 2026-04-30 11:39 | 49.58733 | 4.24769 | 28858 ft | 455 kts | 249° |
| 2026-04-30 11:39 | 49.57701 | 4.20175 | 28126 ft | 454 kts | 249° |
| 2026-04-30 11:40 | 49.56654 | 4.15589 | 27387 ft | 453 kts | 249° |
| 2026-04-30 11:40 | 49.55616 | 4.11016 | 26669 ft | 452 kts | 249° |
| 2026-04-30 11:40 | 49.54613 | 4.06534 | 26360 ft | 442 kts | 249° |
| 2026-04-30 11:40 | 49.53640 | 4.02136 | 26263 ft | 426 kts | 249° |
| 2026-04-30 11:41 | 49.52705 | 3.97887 | 26178 ft | 412 kts | 249° |
| 2026-04-30 11:41 | 49.51800 | 3.93771 | 26093 ft | 399 kts | 249° |
| 2026-04-30 11:41 | 49.50923 | 3.89791 | 26011 ft | 387 kts | 249° |
| 2026-04-30 11:41 | 49.50070 | 3.85927 | 25886 ft | 377 kts | 249° |
| 2026-04-30 11:42 | 49.49226 | 3.82122 | 25564 ft | 374 kts | 249° |
| 2026-04-30 11:42 | 49.48386 | 3.78340 | 25153 ft | 374 kts | 249° |
| 2026-04-30 11:42 | 49.47555 | 3.74605 | 24775 ft | 374 kts | 249° |
| 2026-04-30 11:42 | 49.46716 | 3.70835 | 24421 ft | 372 kts | 249° |
| 2026-04-30 11:43 | 49.45880 | 3.67087 | 24078 ft | 370 kts | 249° |
| 2026-04-30 11:43 | 49.45047 | 3.63357 | 23719 ft | 369 kts | 250° |
| 2026-04-30 11:43 | 49.44327 | 3.59583 | 23330 ft | 367 kts | 254° |
| 2026-04-30 11:43 | 49.43711 | 3.55790 | 22985 ft | 364 kts | 254° |
| 2026-04-30 11:44 | 49.43103 | 3.52030 | 22628 ft | 362 kts | 254° |
| 2026-04-30 11:44 | 49.42479 | 3.48294 | 22284 ft | 359 kts | 253° |
| 2026-04-30 11:44 | 49.41841 | 3.44602 | 21944 ft | 356 kts | 251° |
| 2026-04-30 11:44 | 49.41032 | 3.41086 | 21591 ft | 352 kts | 245° |
| 2026-04-30 11:45 | 49.40102 | 3.37639 | 21046 ft | 349 kts | 244° |
| 2026-04-30 11:45 | 49.39142 | 3.34224 | 20474 ft | 347 kts | 244° |
| 2026-04-30 11:45 | 49.38190 | 3.30833 | 19913 ft | 345 kts | 244° |
| 2026-04-30 11:45 | 49.37252 | 3.27455 | 19356 ft | 343 kts | 244° |
| 2026-04-30 11:46 | 49.36329 | 3.24093 | 18821 ft | 341 kts | 244° |
| 2026-04-30 11:46 | 49.35419 | 3.20754 | 18266 ft | 338 kts | 244° |
| 2026-04-30 11:46 | 49.34518 | 3.17435 | 17640 ft | 336 kts | 245° |
| 2026-04-30 11:46 | 49.33637 | 3.14184 | 17068 ft | 334 kts | 245° |
| 2026-04-30 11:47 | 49.32751 | 3.10911 | 16483 ft | 332 kts | 244° |
| 2026-04-30 11:47 | 49.31871 | 3.07661 | 15913 ft | 329 kts | 244° |
| 2026-04-30 11:47 | 49.30995 | 3.04425 | 15358 ft | 327 kts | 244° |
| 2026-04-30 11:47 | 49.30135 | 3.01256 | 15151 ft | 312 kts | 244° |
| 2026-04-30 11:48 | 49.29322 | 2.98255 | 15132 ft | 298 kts | 243° |
| 2026-04-30 11:48 | 49.28519 | 2.95309 | 15138 ft | 308 kts | 243° |
| 2026-04-30 11:48 | 49.27674 | 2.92221 | 15152 ft | 317 kts | 244° |
| 2026-04-30 11:48 | 49.26820 | 2.89092 | 15157 ft | 318 kts | 245° |
| 2026-04-30 11:49 | 49.25970 | 2.85977 | 15156 ft | 317 kts | 245° |
| 2026-04-30 11:49 | 49.25128 | 2.82925 | 15155 ft | 315 kts | 243° |
| 2026-04-30 11:49 | 49.24198 | 2.79882 | 15147 ft | 315 kts | 244° |
| 2026-04-30 11:49 | 49.23392 | 2.76764 | 15153 ft | 315 kts | 245° |
| 2026-04-30 11:50 | 49.22624 | 2.73636 | 14941 ft | 314 kts | 247° |
| 2026-04-30 11:50 | 49.21854 | 2.70502 | 14527 ft | 315 kts | 247° |
| 2026-04-30 11:50 | 49.21090 | 2.67367 | 14131 ft | 314 kts | 247° |
| 2026-04-30 11:50 | 49.20331 | 2.64241 | 13706 ft | 314 kts | 246° |
| 2026-04-30 11:51 | 49.19578 | 2.61113 | 13277 ft | 311 kts | 247° |
| 2026-04-30 11:51 | 49.18837 | 2.58029 | 12835 ft | 307 kts | 246° |
| 2026-04-30 11:51 | 49.18114 | 2.55035 | 12397 ft | 301 kts | 247° |
| 2026-04-30 11:51 | 49.17398 | 2.52052 | 11964 ft | 297 kts | 247° |
| 2026-04-30 11:52 | 49.16692 | 2.49100 | 11555 ft | 296 kts | 246° |
| 2026-04-30 11:52 | 49.15990 | 2.46148 | 11139 ft | 294 kts | 246° |
| 2026-04-30 11:52 | 49.15288 | 2.43220 | 10741 ft | 293 kts | 246° |
| 2026-04-30 11:52 | 49.14587 | 2.40308 | 10318 ft | 291 kts | 247° |
| 2026-04-30 11:53 | 49.13889 | 2.37415 | 9899 ft | 290 kts | 248° |
| 2026-04-30 11:53 | 49.13198 | 2.34532 | 9463 ft | 288 kts | 246° |
| 2026-04-30 11:53 | 49.12515 | 2.31662 | 9027 ft | 287 kts | 246° |
| 2026-04-30 11:53 | 49.11837 | 2.28801 | 8569 ft | 286 kts | 247° |
| 2026-04-30 11:54 | 49.11170 | 2.25994 | 8150 ft | 284 kts | 247° |
| 2026-04-30 11:54 | 49.10493 | 2.23174 | 7730 ft | 282 kts | 247° |
| 2026-04-30 11:54 | 49.09824 | 2.20373 | 7324 ft | 280 kts | 246° |
| 2026-04-30 11:54 | 49.09165 | 2.17583 | 6922 ft | 278 kts | 246° |
| 2026-04-30 11:55 | 49.08521 | 2.14810 | 6515 ft | 276 kts | 246° |
| 2026-04-30 11:55 | 49.07727 | 2.12195 | 6069 ft | 268 kts | 229° |
| 2026-04-30 11:55 | 49.06336 | 2.10446 | 5645 ft | 255 kts | 199° |
| 2026-04-30 11:55 | 49.04648 | 2.09998 | 5233 ft | 244 kts | 171° |
| 2026-04-30 11:56 | 49.03107 | 2.10892 | 4803 ft | 237 kts | 141° |
| 2026-04-30 11:56 | 49.02064 | 2.12742 | 4391 ft | 233 kts | 124° |
| 2026-04-30 11:56 | 49.01200 | 2.14799 | 4068 ft | 226 kts | 122° |
| 2026-04-30 11:56 | 49.00676 | 2.16947 | 4008 ft | 216 kts | 92° |
| 2026-04-30 11:57 | 49.00780 | 2.19197 | 4012 ft | 212 kts | 90° |
| 2026-04-30 11:57 | 49.00870 | 2.21467 | 4031 ft | 218 kts | 89° |
| 2026-04-30 11:57 | 49.00972 | 2.23762 | 4067 ft | 221 kts | 89° |
| 2026-04-30 11:57 | 49.01088 | 2.26155 | 3808 ft | 229 kts | 89° |
| 2026-04-30 11:58 | 49.01210 | 2.28572 | 3527 ft | 230 kts | 88° |
| 2026-04-30 11:58 | 49.01337 | 2.30986 | 3224 ft | 226 kts | 87° |
| 2026-04-30 11:58 | 49.01458 | 2.33286 | 2940 ft | 216 kts | 88° |
| 2026-04-30 11:58 | 49.01572 | 2.35530 | 2646 ft | 210 kts | 86° |
| 2026-04-30 11:59 | 49.01688 | 2.37726 | 2350 ft | 205 kts | 86° |
| 2026-04-30 11:59 | 49.01789 | 2.39882 | 2123 ft | 205 kts | 85° |
| 2026-04-30 11:59 | 49.01926 | 2.41943 | 1846 ft | 184 kts | 86° |
| 2026-04-30 11:59 | 49.02009 | 2.43785 | 1611 ft | 166 kts | 87° |
| 2026-04-30 12:00 | 49.02098 | 2.45464 | 1388 ft | 150 kts | 87° |
| 2026-04-30 12:00 | 49.02175 | 2.46958 | 1216 ft | 137 kts | 88° |
| 2026-04-30 12:00 | 49.02246 | 2.48337 | 1086 ft | 121 kts | 87° |
| 2026-04-30 12:00 | 49.02303 | 2.49577 | 898 ft | 120 kts | 86° |
| 2026-04-30 12:01 | 49.02375 | 2.50805 | 662 ft | 111 kts | 86° |
| 2026-04-30 12:01 | 49.02443 | 2.51947 | 467 ft | 110 kts | 88° |
| 2026-04-30 12:01 | 49.02504 | 2.53084 | 362 ft | 101 kts | 87° |
| 2026-04-30 12:01 | 49.02535 | 2.53693 | 359 ft | 19 kts | 83° |
| 2026-04-30 12:02 | 49.02551 | 2.53923 | 362 ft | 25 kts | 85° |
| 2026-04-30 12:02 | 49.02568 | 2.54250 | 359 ft | 34 kts | 86° |
| 2026-04-30 12:02 | 49.02538 | 2.54600 | 353 ft | 31 kts | 103° |
| 2026-04-30 12:02 | 49.02491 | 2.54871 | 358 ft | 25 kts | 105° |
| 2026-04-30 12:03 | 49.02447 | 2.55139 | 358 ft | 29 kts | 93° |
| 2026-04-30 12:03 | 49.02338 | 2.55623 | 353 ft | 23 kts | 175° |
| 2026-04-30 12:03 | 49.02187 | 2.55641 | 362 ft | 21 kts | 174° |
| 2026-04-30 12:04 | 49.02111 | 2.55653 | 357 ft | 0 kts | 173° |
| 2026-04-30 12:04 | 49.02110 | 2.55653 | 357 ft | 0 kts | 173° |
| 2026-04-30 12:04 | 49.02108 | 2.55654 | 358 ft | 0 kts | 173° |
| 2026-04-30 12:05 | 49.02104 | 2.55655 | 353 ft | 1 kts | 172° |
| 2026-04-30 12:05 | 49.02099 | 2.55656 | 357 ft | 1 kts | 171° |
| 2026-04-30 12:05 | 49.02090 | 2.55658 | 355 ft | 1 kts | 170° |
| 2026-04-30 12:05 | 49.02080 | 2.55655 | 356 ft | 3 kts | 203° |
| 2026-04-30 12:06 | 49.02064 | 2.55530 | 360 ft | 22 kts | 264° |
| 2026-04-30 12:06 | 49.02047 | 2.55211 | 360 ft | 34 kts | 263° |
| 2026-04-30 12:06 | 49.02026 | 2.54854 | 353 ft | 33 kts | 266° |
| 2026-04-30 12:06 | 49.02009 | 2.54509 | 355 ft | 32 kts | 265° |
| 2026-04-30 12:07 | 49.01973 | 2.54188 | 360 ft | 30 kts | 229° |
| 2026-04-30 12:07 | 49.01881 | 2.53926 | 353 ft | 28 kts | 264° |
| 2026-04-30 12:07 | 49.01869 | 2.53638 | 356 ft | 26 kts | 262° |
| 2026-04-30 12:07 | 49.01856 | 2.53376 | 353 ft | 24 kts | 264° |
| 2026-04-30 12:08 | 49.01845 | 2.53131 | 357 ft | 23 kts | 266° |
| 2026-04-30 12:08 | 49.01833 | 2.52897 | 353 ft | 22 kts | 267° |
| 2026-04-30 12:08 | 49.01819 | 2.52670 | 357 ft | 21 kts | 264° |
| 2026-04-30 12:08 | 49.01811 | 2.52451 | 359 ft | 20 kts | 251° |
| 2026-04-30 12:09 | 49.01717 | 2.52309 | 361 ft | 18 kts | 246° |
| 2026-04-30 12:09 | 49.01708 | 2.52134 | 355 ft | 16 kts | 270° |
| 2026-04-30 12:09 | 49.01697 | 2.51968 | 355 ft | 15 kts | 261° |
| 2026-04-30 12:09 | 49.01683 | 2.51810 | 355 ft | 15 kts | 269° |
| 2026-04-30 12:10 | 49.01675 | 2.51649 | 353 ft | 18 kts | 265° |
| 2026-04-30 12:10 | 49.01664 | 2.51408 | 353 ft | 25 kts | 263° |
| 2026-04-30 12:10 | 49.01646 | 2.51122 | 358 ft | 29 kts | 262° |
| 2026-04-30 12:10 | 49.01628 | 2.50826 | 358 ft | 27 kts | 266° |
| 2026-04-30 12:11 | 49.01613 | 2.50540 | 362 ft | 28 kts | 262° |
| 2026-04-30 12:11 | 49.01457 | 2.50444 | 353 ft | 22 kts | 189° |
| 2026-04-30 12:11 | 49.01395 | 2.50387 | 358 ft | 9 kts | 195° |
| 2026-04-30 12:11 | 49.01322 | 2.50389 | 353 ft | 12 kts | 174° |
| 2026-04-30 12:12 | 49.01238 | 2.50396 | 360 ft | 3 kts | 191° |
| 2026-04-30 12:12 | 49.01224 | 2.50375 | 358 ft | 4 kts | 225° |
| 2026-04-30 12:12 | 49.01207 | 2.50331 | 355 ft | 6 kts | 249° |
| 2026-04-30 12:12 | 49.01200 | 2.50264 | 353 ft | 0 kts | 266° |
| 2026-04-30 12:26 | 49.01200 | 2.50267 | 353 ft | 0 kts | 258° |
| 2026-04-30 12:27 | 49.01201 | 2.50270 | 353 ft | 3 kts | 266° |
| 2026-04-30 12:27 | 49.01195 | 2.50296 | 360 ft | 3 kts | 332° |
| 2026-04-30 12:27 | 49.01178 | 2.50303 | 362 ft | 3 kts | 321° |
| 2026-04-30 12:27 | 49.01168 | 2.50325 | 360 ft | 3 kts | 298° |
| 2026-04-30 12:28 | 49.01162 | 2.50340 | 358 ft | 0 kts | 288° |
| 2026-04-30 12:28 | 49.01159 | 2.50362 | 357 ft | 3 kts | 309° |
| 2026-04-30 12:28 | 49.01148 | 2.50374 | 363 ft | 0 kts | 358° |
| 2026-04-30 12:30 | 49.01162 | 2.50373 | 360 ft | 6 kts | 359° |
| 2026-04-30 12:30 | 49.01239 | 2.50383 | 355 ft | 13 kts | 9° |
| 2026-04-30 12:30 | 49.01330 | 2.50388 | 353 ft | 14 kts | 358° |
| 2026-04-30 12:31 | 49.01422 | 2.50462 | 356 ft | 18 kts | 71° |
| 2026-04-30 12:31 | 49.01443 | 2.50652 | 353 ft | 18 kts | 90° |
| 2026-04-30 12:31 | 49.01452 | 2.50850 | 353 ft | 19 kts | 84° |
| 2026-04-30 12:31 | 49.01462 | 2.51051 | 353 ft | 19 kts | 87° |
| 2026-04-30 12:32 | 49.01488 | 2.51244 | 358 ft | 19 kts | 60° |
| 2026-04-30 12:32 | 49.01609 | 2.51287 | 358 ft | 19 kts | 351° |
| 2026-04-30 12:32 | 49.01740 | 2.51273 | 356 ft | 19 kts | 354° |
| 2026-04-30 12:32 | 49.01869 | 2.51259 | 357 ft | 18 kts | 355° |
| 2026-04-30 12:33 | 49.01955 | 2.51256 | 353 ft | 0 kts | 10° |
| 2026-04-30 12:34 | 49.01957 | 2.51257 | 353 ft | 2 kts | 11° |
| 2026-04-30 12:34 | 49.02015 | 2.51305 | 357 ft | 13 kts | 40° |
| 2026-04-30 12:34 | 49.02066 | 2.51438 | 357 ft | 29 kts | 78° |
| 2026-04-30 12:35 | 49.02108 | 2.52119 | 358 ft | 98 kts | 85° |
| 2026-04-30 12:35 | 49.02170 | 2.53457 | 359 ft | 153 kts | 86° |
| 2026-04-30 12:35 | 49.02264 | 2.55187 | 820 ft | 172 kts | 86° |
| 2026-04-30 12:35 | 49.02346 | 2.57014 | 1729 ft | 169 kts | 85° |
| 2026-04-30 12:36 | 49.02441 | 2.58836 | 2387 ft | 181 kts | 86° |
| 2026-04-30 12:36 | 49.02553 | 2.60884 | 2579 ft | 206 kts | 86° |
| 2026-04-30 12:36 | 49.02685 | 2.63157 | 2763 ft | 230 kts | 86° |
| 2026-04-30 12:36 | 49.02828 | 2.65682 | 3222 ft | 244 kts | 89° |
| 2026-04-30 12:37 | 49.02963 | 2.68260 | 4047 ft | 245 kts | 89° |
| 2026-04-30 12:37 | 49.03097 | 2.70856 | 4772 ft | 250 kts | 88° |
| 2026-04-30 12:37 | 49.03231 | 2.73509 | 5489 ft | 253 kts | 89° |
| 2026-04-30 12:37 | 49.03168 | 2.76193 | 6178 ft | 253 kts | 102° |
| 2026-04-30 12:38 | 49.02869 | 2.78824 | 6945 ft | 254 kts | 104° |
| 2026-04-30 12:38 | 49.02527 | 2.81500 | 7540 ft | 262 kts | 103° |
| 2026-04-30 12:38 | 49.02174 | 2.84261 | 8168 ft | 267 kts | 102° |
| 2026-04-30 12:38 | 49.01823 | 2.87081 | 8860 ft | 271 kts | 102° |
| 2026-04-30 12:39 | 49.01485 | 2.89865 | 9595 ft | 273 kts | 102° |
| 2026-04-30 12:39 | 49.01143 | 2.92721 | 10270 ft | 277 kts | 102° |
| 2026-04-30 12:39 | 49.00794 | 2.95668 | 10608 ft | 293 kts | 101° |
| 2026-04-30 12:39 | 49.00421 | 2.98831 | 10758 ft | 314 kts | 102° |
| 2026-04-30 12:40 | 49.00028 | 3.02199 | 10968 ft | 332 kts | 102° |
| 2026-04-30 12:40 | 48.99614 | 3.05744 | 11163 ft | 349 kts | 101° |
| 2026-04-30 12:40 | 48.99186 | 3.09428 | 11588 ft | 357 kts | 101° |
| 2026-04-30 12:40 | 48.98759 | 3.13092 | 12309 ft | 354 kts | 101° |
| 2026-04-30 12:41 | 48.98331 | 3.16765 | 13118 ft | 352 kts | 101° |
| 2026-04-30 12:41 | 48.97898 | 3.20465 | 13650 ft | 358 kts | 101° |
| 2026-04-30 12:41 | 48.97459 | 3.24225 | 14143 ft | 365 kts | 101° |
| 2026-04-30 12:41 | 48.97008 | 3.28053 | 14699 ft | 368 kts | 101° |
| 2026-04-30 12:42 | 48.96529 | 3.31861 | 15441 ft | 366 kts | 104° |
| 2026-04-30 12:42 | 48.95723 | 3.35554 | 16014 ft | 370 kts | 111° |
| 2026-04-30 12:42 | 48.94778 | 3.39251 | 16393 ft | 378 kts | 112° |
| 2026-04-30 12:42 | 48.93826 | 3.42914 | 17072 ft | 378 kts | 112° |
| 2026-04-30 12:43 | 48.92865 | 3.46613 | 17773 ft | 378 kts | 112° |
| 2026-04-30 12:43 | 48.91897 | 3.50371 | 18209 ft | 385 kts | 111° |
| 2026-04-30 12:43 | 48.90920 | 3.54190 | 18690 ft | 389 kts | 111° |
| 2026-04-30 12:43 | 48.89942 | 3.58034 | 19136 ft | 393 kts | 111° |
| 2026-04-30 12:44 | 48.88957 | 3.61915 | 19640 ft | 394 kts | 111° |
| 2026-04-30 12:44 | 48.87966 | 3.65823 | 20092 ft | 398 kts | 111° |
| 2026-04-30 12:44 | 48.86968 | 3.69757 | 20566 ft | 400 kts | 110° |
| 2026-04-30 12:44 | 48.85966 | 3.73705 | 21063 ft | 402 kts | 110° |
| 2026-04-30 12:45 | 48.84970 | 3.77620 | 21524 ft | 404 kts | 110° |
| 2026-04-30 12:45 | 48.83954 | 3.81607 | 21983 ft | 406 kts | 110° |
| 2026-04-30 12:45 | 48.82932 | 3.85611 | 22441 ft | 408 kts | 110° |
| 2026-04-30 12:45 | 48.81906 | 3.89627 | 22885 ft | 410 kts | 110° |
| 2026-04-30 12:46 | 48.80871 | 3.93667 | 23321 ft | 412 kts | 110° |
| 2026-04-30 12:46 | 48.79829 | 3.97727 | 23741 ft | 414 kts | 110° |
| 2026-04-30 12:46 | 48.78783 | 4.01796 | 24086 ft | 416 kts | 110° |
| 2026-04-30 12:46 | 48.77727 | 4.05895 | 24421 ft | 418 kts | 110° |
| 2026-04-30 12:47 | 48.76680 | 4.09949 | 24750 ft | 420 kts | 110° |
| 2026-04-30 12:47 | 48.75613 | 4.14079 | 25084 ft | 422 kts | 110° |
| 2026-04-30 12:47 | 48.74538 | 4.18230 | 25399 ft | 424 kts | 110° |
| 2026-04-30 12:47 | 48.73458 | 4.22392 | 25708 ft | 426 kts | 111° |
| 2026-04-30 12:48 | 48.72369 | 4.26583 | 26010 ft | 428 kts | 111° |
| 2026-04-30 12:48 | 48.71275 | 4.30786 | 26305 ft | 430 kts | 111° |
| 2026-04-30 12:48 | 48.70175 | 4.35001 | 26598 ft | 432 kts | 110° |
| 2026-04-30 12:48 | 48.69063 | 4.39255 | 26835 ft | 435 kts | 110° |
| 2026-04-30 12:49 | 48.67962 | 4.43463 | 27107 ft | 437 kts | 110° |
| 2026-04-30 12:49 | 48.66837 | 4.47751 | 27389 ft | 439 kts | 111° |
| 2026-04-30 12:49 | 48.65707 | 4.52052 | 27673 ft | 441 kts | 111° |
| 2026-04-30 12:49 | 48.64572 | 4.56363 | 27938 ft | 443 kts | 111° |
| 2026-04-30 12:50 | 48.63428 | 4.60699 | 28195 ft | 444 kts | 111° |
| 2026-04-30 12:50 | 48.62282 | 4.65037 | 28480 ft | 445 kts | 111° |
| 2026-04-30 12:50 | 48.61133 | 4.69377 | 28864 ft | 444 kts | 111° |
| 2026-04-30 12:50 | 48.59988 | 4.73692 | 29283 ft | 442 kts | 111° |
| 2026-04-30 12:51 | 48.58860 | 4.77933 | 29680 ft | 440 kts | 111° |
| 2026-04-30 12:51 | 48.57718 | 4.82225 | 29961 ft | 442 kts | 111° |
| 2026-04-30 12:51 | 48.56570 | 4.86529 | 30291 ft | 441 kts | 111° |
| 2026-04-30 12:51 | 48.55426 | 4.90810 | 30682 ft | 439 kts | 111° |
| 2026-04-30 12:52 | 48.54283 | 4.95081 | 30999 ft | 438 kts | 111° |
| 2026-04-30 12:52 | 48.53138 | 4.99349 | 31170 ft | 441 kts | 111° |
| 2026-04-30 12:52 | 48.51985 | 5.03641 | 31430 ft | 441 kts | 111° |
| 2026-04-30 12:52 | 48.50834 | 5.07915 | 31804 ft | 439 kts | 111° |
| 2026-04-30 12:53 | 48.49702 | 5.12112 | 32191 ft | 437 kts | 111° |
| 2026-04-30 12:53 | 48.48560 | 5.16342 | 32510 ft | 436 kts | 111° |
| 2026-04-30 12:53 | 48.47416 | 5.20567 | 32810 ft | 435 kts | 111° |
| 2026-04-30 12:53 | 48.46273 | 5.24782 | 33141 ft | 434 kts | 111° |
| 2026-04-30 12:54 | 48.45132 | 5.28983 | 33441 ft | 433 kts | 111° |
| 2026-04-30 12:54 | 48.43989 | 5.33184 | 33711 ft | 433 kts | 111° |
| 2026-04-30 12:54 | 48.42849 | 5.37369 | 34045 ft | 431 kts | 111° |
| 2026-04-30 12:54 | 48.41711 | 5.41537 | 34333 ft | 430 kts | 111° |
| 2026-04-30 12:55 | 48.40572 | 5.45702 | 34517 ft | 431 kts | 111° |
| 2026-04-30 12:55 | 48.39442 | 5.49826 | 34684 ft | 432 kts | 111° |
| 2026-04-30 12:55 | 48.38294 | 5.54007 | 34894 ft | 432 kts | 111° |
| 2026-04-30 12:55 | 48.37148 | 5.58174 | 35128 ft | 431 kts | 111° |
| 2026-04-30 12:56 | 48.34856 | 5.66492 | 35205 ft | 432 kts | 111° |
| 2026-04-30 12:56 | 48.32543 | 5.74858 | 35203 ft | 433 kts | 111° |
| 2026-04-30 12:57 | 48.30351 | 5.83209 | 35209 ft | 433 kts | 108° |
| 2026-04-30 12:57 | 48.28481 | 5.91797 | 35214 ft | 432 kts | 107° |
| 2026-04-30 12:58 | 48.26654 | 6.00404 | 35214 ft | 433 kts | 107° |
| 2026-04-30 12:58 | 48.24793 | 6.09006 | 35217 ft | 434 kts | 107° |
| 2026-04-30 12:59 | 48.22918 | 6.17550 | 35210 ft | 435 kts | 107° |
| 2026-04-30 12:59 | 48.21013 | 6.26158 | 35209 ft | 435 kts | 107° |
| 2026-04-30 13:00 | 48.19103 | 6.34756 | 35211 ft | 435 kts | 107° |
| 2026-04-30 13:00 | 48.17182 | 6.43365 | 35218 ft | 436 kts | 107° |
| 2026-04-30 13:01 | 48.15256 | 6.51970 | 35215 ft | 436 kts | 107° |
| 2026-04-30 13:01 | 48.13333 | 6.60522 | 35213 ft | 436 kts | 107° |
| 2026-04-30 13:02 | 48.11393 | 6.69116 | 35215 ft | 436 kts | 107° |
| 2026-04-30 13:02 | 48.09448 | 6.77699 | 35219 ft | 435 kts | 107° |
| 2026-04-30 13:03 | 48.07498 | 6.86267 | 35218 ft | 435 kts | 107° |
| 2026-04-30 13:03 | 48.05555 | 6.94774 | 35232 ft | 435 kts | 107° |
| 2026-04-30 13:04 | 48.03593 | 7.03326 | 35236 ft | 436 kts | 107° |
| 2026-04-30 13:04 | 48.01621 | 7.11890 | 35233 ft | 436 kts | 107° |
| 2026-04-30 13:05 | 47.99640 | 7.20459 | 35244 ft | 436 kts | 106° |
| 2026-04-30 13:06 | 47.96670 | 7.33243 | 35231 ft | 437 kts | 107° |
| 2026-04-30 13:06 | 47.94668 | 7.41819 | 35241 ft | 438 kts | 107° |
| 2026-04-30 13:07 | 47.92659 | 7.50394 | 35229 ft | 438 kts | 107° |
| 2026-04-30 13:07 | 47.90640 | 7.58973 | 35221 ft | 439 kts | 107° |
| 2026-04-30 13:08 | 47.88519 | 7.67517 | 35223 ft | 440 kts | 108° |
| 2026-04-30 13:08 | 47.86349 | 7.76033 | 35220 ft | 440 kts | 108° |
| 2026-04-30 13:09 | 47.84200 | 7.84479 | 35228 ft | 439 kts | 108° |
| 2026-04-30 13:09 | 47.82040 | 7.92976 | 35224 ft | 439 kts | 108° |
| 2026-04-30 13:10 | 47.79881 | 8.01453 | 35236 ft | 438 kts | 108° |
| 2026-04-30 13:10 | 47.77716 | 8.09919 | 35231 ft | 438 kts | 108° |
| 2026-04-30 13:11 | 47.75548 | 8.18367 | 35240 ft | 437 kts | 108° |
| 2026-04-30 13:11 | 47.73374 | 8.26804 | 35242 ft | 437 kts | 108° |
| 2026-04-30 13:12 | 47.71213 | 8.35166 | 35244 ft | 437 kts | 108° |
| 2026-04-30 13:12 | 47.69028 | 8.43587 | 35263 ft | 437 kts | 108° |
| 2026-04-30 13:13 | 47.66058 | 8.56368 | 35248 ft | 437 kts | 105° |
| 2026-04-30 13:14 | 47.63191 | 8.69240 | 35249 ft | 439 kts | 105° |
| 2026-04-30 13:14 | 47.60268 | 8.82048 | 35260 ft | 440 kts | 105° |
| 2026-04-30 13:15 | 47.57297 | 8.94938 | 35243 ft | 441 kts | 105° |
| 2026-04-30 13:16 | 47.55304 | 9.03540 | 35243 ft | 442 kts | 105° |
| 2026-04-30 13:16 | 47.53304 | 9.12145 | 35246 ft | 442 kts | 105° |
| 2026-04-30 13:17 | 47.50840 | 9.22698 | 35263 ft | 442 kts | 105° |
| 2026-04-30 13:18 | 47.47817 | 9.35582 | 35238 ft | 442 kts | 105° |
| 2026-04-30 13:18 | 47.44788 | 9.48445 | 35241 ft | 442 kts | 105° |
| 2026-04-30 13:19 | 47.42756 | 9.57002 | 35238 ft | 441 kts | 105° |
| 2026-04-30 13:19 | 47.40755 | 9.65504 | 35237 ft | 440 kts | 102° |
| 2026-04-30 13:20 | 47.39424 | 9.74262 | 35235 ft | 436 kts | 97° |
| 2026-04-30 13:20 | 47.38285 | 9.83050 | 35240 ft | 437 kts | 97° |
| 2026-04-30 13:21 | 47.37112 | 9.91855 | 35219 ft | 438 kts | 97° |
| 2026-04-30 13:22 | 47.35285 | 10.05017 | 35225 ft | 440 kts | 97° |
| 2026-04-30 13:22 | 47.33404 | 10.18312 | 35214 ft | 442 kts | 97° |
| 2026-04-30 13:23 | 47.31503 | 10.31641 | 35216 ft | 445 kts | 97° |
| 2026-04-30 13:24 | 47.28936 | 10.49443 | 35226 ft | 444 kts | 97° |
| 2026-04-30 13:25 | 47.26353 | 10.67165 | 35223 ft | 443 kts | 97° |
| 2026-04-30 13:26 | 47.23077 | 10.89376 | 35242 ft | 446 kts | 97° |
| 2026-04-30 13:28 | 47.19740 | 11.11663 | 35240 ft | 449 kts | 98° |
| 2026-04-30 13:28 | 47.17699 | 11.25136 | 35243 ft | 450 kts | 97° |
| 2026-04-30 13:29 | 47.14956 | 11.43068 | 35231 ft | 450 kts | 98° |
| 2026-04-30 13:31 | 47.11498 | 11.65382 | 35232 ft | 448 kts | 98° |
| 2026-04-30 13:32 | 47.07905 | 11.87551 | 35209 ft | 453 kts | 104° |
| 2026-04-30 13:33 | 47.02371 | 12.04336 | 35225 ft | 457 kts | 111° |
| 2026-04-30 13:34 | 46.98112 | 12.16846 | 35206 ft | 457 kts | 111° |
| 2026-04-30 13:35 | 46.92513 | 12.33424 | 35239 ft | 456 kts | 111° |
| 2026-04-30 13:36 | 46.87291 | 12.48817 | 35246 ft | 467 kts | 111° |
| 2026-04-30 13:36 | 46.82938 | 12.61546 | 35221 ft | 467 kts | 112° |
| 2026-04-30 13:37 | 46.78586 | 12.74214 | 35262 ft | 464 kts | 112° |
| 2026-04-30 13:38 | 46.74231 | 12.86842 | 35227 ft | 464 kts | 112° |
| 2026-04-30 13:39 | 46.68436 | 13.03545 | 35241 ft | 462 kts | 112° |
| 2026-04-30 13:40 | 46.64071 | 13.16057 | 35252 ft | 463 kts | 112° |
| 2026-04-30 13:40 | 46.61147 | 13.24409 | 35245 ft | 464 kts | 112° |
| 2026-04-30 13:41 | 46.58203 | 13.32792 | 35255 ft | 466 kts | 112° |
| 2026-04-30 13:41 | 46.54732 | 13.40801 | 35250 ft | 475 kts | 127° |
| 2026-04-30 13:42 | 46.50212 | 13.47856 | 35274 ft | 478 kts | 130° |
| 2026-04-30 13:42 | 46.43361 | 13.58326 | 35273 ft | 480 kts | 129° |
| 2026-04-30 13:43 | 46.38799 | 13.65382 | 35276 ft | 478 kts | 129° |
| 2026-04-30 13:43 | 46.34263 | 13.72426 | 35285 ft | 478 kts | 130° |
| 2026-04-30 13:44 | 46.29717 | 13.79471 | 35287 ft | 480 kts | 130° |
| 2026-04-30 13:44 | 46.25180 | 13.86479 | 35294 ft | 481 kts | 130° |
| 2026-04-30 13:45 | 46.18311 | 13.97046 | 35291 ft | 481 kts | 130° |
| 2026-04-30 13:46 | 46.13725 | 14.04081 | 35294 ft | 481 kts | 130° |
| 2026-04-30 13:46 | 46.09136 | 14.11102 | 35292 ft | 482 kts | 131° |
| 2026-04-30 13:47 | 46.04535 | 14.18122 | 35301 ft | 483 kts | 131° |
| 2026-04-30 13:47 | 45.99947 | 14.25104 | 35310 ft | 483 kts | 131° |
| 2026-04-30 13:48 | 45.95326 | 14.32119 | 35312 ft | 484 kts | 131° |
| 2026-04-30 13:48 | 45.90690 | 14.39137 | 35319 ft | 485 kts | 131° |
| 2026-04-30 13:49 | 45.86040 | 14.46158 | 35312 ft | 485 kts | 131° |
| 2026-04-30 13:49 | 45.81383 | 14.53172 | 35319 ft | 486 kts | 131° |
| 2026-04-30 13:50 | 45.76750 | 14.60131 | 35325 ft | 486 kts | 131° |
| 2026-04-30 13:50 | 45.69744 | 14.70621 | 35330 ft | 486 kts | 132° |
| 2026-04-30 13:51 | 45.65069 | 14.77599 | 35324 ft | 485 kts | 132° |
| 2026-04-30 13:51 | 45.60399 | 14.84551 | 35328 ft | 485 kts | 132° |
| 2026-04-30 13:52 | 45.55731 | 14.91481 | 35323 ft | 484 kts | 132° |
| 2026-04-30 13:52 | 45.51058 | 14.98402 | 35348 ft | 485 kts | 133° |
| 2026-04-30 13:53 | 45.46327 | 15.05174 | 35338 ft | 486 kts | 135° |
| 2026-04-30 13:53 | 45.41354 | 15.11714 | 35349 ft | 487 kts | 136° |
| 2026-04-30 13:54 | 45.36332 | 15.18237 | 35339 ft | 490 kts | 136° |
| 2026-04-30 13:54 | 45.31309 | 15.24816 | 35320 ft | 491 kts | 136° |
| 2026-04-30 13:55 | 45.26295 | 15.31413 | 35323 ft | 491 kts | 136° |
| 2026-04-30 13:55 | 45.21281 | 15.38006 | 35330 ft | 491 kts | 136° |
| 2026-04-30 13:56 | 45.16304 | 15.44534 | 35326 ft | 491 kts | 136° |
| 2026-04-30 13:56 | 45.11289 | 15.51093 | 35328 ft | 491 kts | 136° |
| 2026-04-30 13:57 | 45.06263 | 15.57648 | 35319 ft | 492 kts | 136° |
| 2026-04-30 13:57 | 45.01264 | 15.64151 | 35320 ft | 492 kts | 136° |
| 2026-04-30 13:58 | 44.93705 | 15.73955 | 35317 ft | 492 kts | 136° |
| 2026-04-30 13:59 | 44.88686 | 15.80444 | 35325 ft | 492 kts | 137° |
| 2026-04-30 13:59 | 44.83634 | 15.86960 | 35308 ft | 493 kts | 137° |
| 2026-04-30 14:00 | 44.78569 | 15.93476 | 35309 ft | 493 kts | 137° |
| 2026-04-30 14:00 | 44.70958 | 16.03237 | 35304 ft | 494 kts | 137° |
| 2026-04-30 14:01 | 44.65866 | 16.09746 | 35317 ft | 495 kts | 137° |
| 2026-04-30 14:01 | 44.60795 | 16.16215 | 35267 ft | 496 kts | 138° |
| 2026-04-30 14:02 | 44.55691 | 16.22707 | 35291 ft | 495 kts | 138° |
| 2026-04-30 14:02 | 44.50578 | 16.29196 | 35289 ft | 496 kts | 138° |
| 2026-04-30 14:03 | 44.45465 | 16.35669 | 35301 ft | 496 kts | 139° |
| 2026-04-30 14:03 | 44.40341 | 16.42139 | 35289 ft | 496 kts | 139° |
| 2026-04-30 14:04 | 44.35208 | 16.48605 | 35275 ft | 497 kts | 139° |
| 2026-04-30 14:04 | 44.30071 | 16.55060 | 35271 ft | 496 kts | 139° |
| 2026-04-30 14:05 | 44.24967 | 16.61458 | 35291 ft | 497 kts | 139° |
| 2026-04-30 14:05 | 44.19822 | 16.67892 | 35275 ft | 497 kts | 139° |
| 2026-04-30 14:06 | 44.12095 | 16.77525 | 35249 ft | 497 kts | 140° |
| 2026-04-30 14:07 | 44.04357 | 16.87136 | 35271 ft | 497 kts | 140° |
| 2026-04-30 14:08 | 43.96630 | 16.96698 | 35250 ft | 499 kts | 140° |
| 2026-04-30 14:08 | 43.88842 | 17.06301 | 35216 ft | 500 kts | 140° |
| 2026-04-30 14:09 | 43.83631 | 17.12707 | 35229 ft | 501 kts | 140° |
| 2026-04-30 14:10 | 43.75796 | 17.22310 | 35211 ft | 501 kts | 140° |
| 2026-04-30 14:10 | 43.70607 | 17.28650 | 35217 ft | 502 kts | 140° |
| 2026-04-30 14:11 | 43.65374 | 17.35029 | 35178 ft | 502 kts | 141° |
| 2026-04-30 14:11 | 43.60134 | 17.41402 | 35183 ft | 502 kts | 141° |
| 2026-04-30 14:12 | 43.54885 | 17.47768 | 35194 ft | 502 kts | 141° |
| 2026-04-30 14:12 | 43.49634 | 17.54123 | 35188 ft | 502 kts | 141° |
| 2026-04-30 14:13 | 43.44420 | 17.60417 | 35180 ft | 502 kts | 141° |
| 2026-04-30 14:13 | 43.39159 | 17.66752 | 35177 ft | 503 kts | 141° |
| 2026-04-30 14:14 | 43.33891 | 17.73082 | 35170 ft | 503 kts | 141° |
| 2026-04-30 14:14 | 43.28618 | 17.79402 | 35156 ft | 503 kts | 141° |
| 2026-04-30 14:15 | 43.23348 | 17.85704 | 35128 ft | 503 kts | 141° |
| 2026-04-30 14:15 | 43.18069 | 17.92001 | 35110 ft | 502 kts | 142° |
| 2026-04-30 14:16 | 43.12839 | 17.98226 | 35130 ft | 502 kts | 142° |
| 2026-04-30 14:16 | 43.07563 | 18.04489 | 35132 ft | 502 kts | 142° |
| 2026-04-30 14:17 | 43.02284 | 18.10741 | 35129 ft | 502 kts | 142° |
| 2026-04-30 14:17 | 42.97002 | 18.16982 | 35128 ft | 502 kts | 142° |
| 2026-04-30 14:18 | 42.91717 | 18.23213 | 35113 ft | 502 kts | 142° |
| 2026-04-30 14:18 | 42.83783 | 18.32539 | 35117 ft | 502 kts | 142° |
| 2026-04-30 14:19 | 42.75836 | 18.41846 | 35111 ft | 503 kts | 142° |
| 2026-04-30 14:20 | 42.70526 | 18.48047 | 35076 ft | 504 kts | 143° |
| 2026-04-30 14:20 | 42.62583 | 18.57296 | 35114 ft | 504 kts | 143° |
| 2026-04-30 14:21 | 42.57250 | 18.63487 | 35103 ft | 504 kts | 143° |
| 2026-04-30 14:22 | 42.49240 | 18.72761 | 35106 ft | 505 kts | 143° |
| 2026-04-30 14:22 | 42.41208 | 18.82027 | 35109 ft | 506 kts | 144° |
| 2026-04-30 14:23 | 42.30514 | 18.94314 | 35134 ft | 506 kts | 144° |
| 2026-04-30 14:24 | 42.22468 | 19.03520 | 35137 ft | 505 kts | 144° |
| 2026-04-30 14:25 | 42.11747 | 19.15740 | 35117 ft | 505 kts | 145° |
| 2026-04-30 14:26 | 42.03719 | 19.24851 | 35127 ft | 506 kts | 145° |
| 2026-04-30 14:27 | 41.95641 | 19.33990 | 35106 ft | 506 kts | 146° |
| 2026-04-30 14:27 | 41.90261 | 19.40058 | 35125 ft | 506 kts | 146° |
| 2026-04-30 14:28 | 41.82148 | 19.49182 | 35105 ft | 507 kts | 146° |
| 2026-04-30 14:28 | 41.76740 | 19.55249 | 35109 ft | 506 kts | 146° |
| 2026-04-30 14:29 | 41.66862 | 19.66294 | 35103 ft | 504 kts | 146° |
| 2026-04-30 14:31 | 41.52530 | 19.82233 | 35081 ft | 503 kts | 146° |
| 2026-04-30 14:31 | 41.44465 | 19.91165 | 35069 ft | 501 kts | 146° |
| 2026-04-30 14:32 | 41.36444 | 20.00016 | 35075 ft | 499 kts | 146° |
| 2026-04-30 14:33 | 41.31137 | 20.05857 | 35072 ft | 497 kts | 146° |
| 2026-04-30 14:33 | 41.23146 | 20.14626 | 35090 ft | 496 kts | 146° |
| 2026-04-30 14:34 | 41.17815 | 20.20459 | 35061 ft | 496 kts | 146° |
| 2026-04-30 14:34 | 41.12463 | 20.26300 | 35089 ft | 500 kts | 146° |
| 2026-04-30 14:35 | 41.04374 | 20.35108 | 35064 ft | 503 kts | 145° |
| 2026-04-30 14:36 | 40.98970 | 20.40981 | 35056 ft | 502 kts | 146° |
| 2026-04-30 14:36 | 40.93615 | 20.46786 | 35062 ft | 501 kts | 146° |
| 2026-04-30 14:37 | 40.88231 | 20.52607 | 35059 ft | 499 kts | 146° |
| 2026-04-30 14:37 | 40.82856 | 20.58407 | 35035 ft | 498 kts | 146° |
| 2026-04-30 14:38 | 40.77497 | 20.64177 | 35039 ft | 497 kts | 146° |
| 2026-04-30 14:38 | 40.72145 | 20.69927 | 35044 ft | 496 kts | 146° |
| 2026-04-30 14:39 | 40.66801 | 20.75655 | 35030 ft | 494 kts | 145° |
| 2026-04-30 14:39 | 40.61505 | 20.81320 | 35041 ft | 493 kts | 146° |
| 2026-04-30 14:40 | 40.53514 | 20.89843 | 35025 ft | 493 kts | 146° |
| 2026-04-30 14:40 | 40.48194 | 20.95505 | 35027 ft | 492 kts | 146° |
| 2026-04-30 14:41 | 40.42985 | 21.01338 | 35015 ft | 492 kts | 142° |
| 2026-04-30 14:41 | 40.37885 | 21.07326 | 35019 ft | 492 kts | 142° |
| 2026-04-30 14:42 | 40.32773 | 21.13280 | 35014 ft | 491 kts | 143° |
| 2026-04-30 14:42 | 40.27649 | 21.19176 | 35006 ft | 490 kts | 143° |
| 2026-04-30 14:43 | 40.22550 | 21.25013 | 35005 ft | 491 kts | 143° |
| 2026-04-30 14:43 | 40.17407 | 21.30888 | 34989 ft | 491 kts | 143° |
| 2026-04-30 14:44 | 40.12263 | 21.36757 | 35012 ft | 491 kts | 143° |
| 2026-04-30 14:45 | 40.02161 | 21.48245 | 34993 ft | 493 kts | 143° |
| 2026-04-30 14:45 | 39.97003 | 21.54095 | 34981 ft | 491 kts | 143° |